createdAt,value
2018-11-13T00:00:47.876Z,0.00
2018-11-13T00:01:47.790Z,0.00
2018-11-13T00:02:47.674Z,0.00
2018-11-13T00:03:47.578Z,0.00
2018-11-13T00:04:47.474Z,0.00
2018-11-13T00:05:47.377Z,0.00
2018-11-13T00:06:47.290Z,0.00
2018-11-13T00:07:47.175Z,0.00
2018-11-13T00:08:47.081Z,0.00
2018-11-13T00:09:46.976Z,0.00
2018-11-13T00:10:46.876Z,0.00
2018-11-13T00:11:46.794Z,0.00
2018-11-13T00:12:46.677Z,0.00
2018-11-13T00:13:46.577Z,0.00
2018-11-13T00:14:46.478Z,0.00
2018-11-13T00:15:46.379Z,0.00
2018-11-13T00:16:46.294Z,0.00
2018-11-13T00:17:46.177Z,0.00
2018-11-13T00:18:46.078Z,0.00
2018-11-13T00:19:45.979Z,0.00
2018-11-13T00:20:45.880Z,0.00
2018-11-13T00:21:45.797Z,0.00
2018-11-13T00:22:45.681Z,0.00
2018-11-13T00:23:45.579Z,0.00
2018-11-13T00:24:45.480Z,0.00
2018-11-13T00:25:45.379Z,0.00
2018-11-13T00:26:45.294Z,0.00
2018-11-13T00:27:45.289Z,0.00
2018-11-13T00:28:45.083Z,0.00
2018-11-13T00:29:44.980Z,0.00
2018-11-13T00:30:44.880Z,0.00
2018-11-13T00:31:44.796Z,0.00
2018-11-13T00:32:44.679Z,0.00
2018-11-13T00:33:44.582Z,0.00
2018-11-13T00:34:44.480Z,0.00
2018-11-13T00:35:44.378Z,0.00
2018-11-13T00:36:44.296Z,0.00
2018-11-13T00:37:44.184Z,0.00
2018-11-13T00:38:44.083Z,0.00
2018-11-13T00:39:43.991Z,0.00
2018-11-13T00:40:43.879Z,0.00
2018-11-13T00:41:43.794Z,0.00
2018-11-13T00:42:43.679Z,0.00
2018-11-13T00:43:43.580Z,0.00
2018-11-13T00:44:43.479Z,0.00
2018-11-13T00:45:43.777Z,0.00
2018-11-13T00:46:43.297Z,0.00
2018-11-13T00:47:43.181Z,0.00
2018-11-13T00:48:43.080Z,0.00
2018-11-13T00:49:42.982Z,0.00
2018-11-13T00:50:42.897Z,0.00
2018-11-13T00:51:42.795Z,0.00
2018-11-13T00:52:42.681Z,0.00
2018-11-13T00:53:42.581Z,0.00
2018-11-13T00:54:42.494Z,0.00
2018-11-13T00:55:42.391Z,0.00
2018-11-13T00:56:42.300Z,0.00
2018-11-13T00:57:42.181Z,0.00
2018-11-13T00:58:42.081Z,0.00
2018-11-13T00:59:41.985Z,0.00
2018-11-13T01:00:41.913Z,0.00
2018-11-13T01:01:41.801Z,0.00
2018-11-13T01:02:41.682Z,0.00
2018-11-13T01:03:41.582Z,0.00
2018-11-13T01:04:41.482Z,0.00
2018-11-13T01:05:41.409Z,0.00
2018-11-13T01:06:41.298Z,0.00
2018-11-13T01:07:41.233Z,0.00
2018-11-13T01:08:41.082Z,0.00
2018-11-13T01:09:40.980Z,0.00
2018-11-13T01:10:40.883Z,0.00
2018-11-13T01:11:40.811Z,0.00
2018-11-13T01:12:40.686Z,0.00
2018-11-13T01:13:40.586Z,0.00
2018-11-13T01:14:40.489Z,0.00
2018-11-13T01:15:40.383Z,0.00
2018-11-13T01:16:40.732Z,0.00
2018-11-13T01:17:40.185Z,0.00
2018-11-13T01:18:40.086Z,0.00
2018-11-13T01:19:39.984Z,0.00
2018-11-13T01:20:39.884Z,0.00
2018-11-13T01:21:39.912Z,0.00
2018-11-13T01:22:39.694Z,0.00
2018-11-13T01:23:39.604Z,0.00
2018-11-13T01:24:39.487Z,0.00
2018-11-13T01:25:39.386Z,0.00
2018-11-13T01:26:39.288Z,0.00
2018-11-13T01:27:39.203Z,0.00
2018-11-13T01:28:39.189Z,0.00
2018-11-13T01:29:38.988Z,0.00
2018-11-13T01:30:38.891Z,0.00
2018-11-13T01:31:38.806Z,0.00
2018-11-13T01:32:38.696Z,0.00
2018-11-13T01:33:38.587Z,0.00
2018-11-13T01:34:38.490Z,0.00
2018-11-13T01:35:38.489Z,0.00
2018-11-13T01:36:38.292Z,0.00
2018-11-13T01:37:38.207Z,0.00
2018-11-13T01:38:38.095Z,0.00
2018-11-13T01:39:37.993Z,0.00
2018-11-13T01:40:37.895Z,0.00
2018-11-13T01:41:37.839Z,0.00
2018-11-13T01:42:37.821Z,0.00
2018-11-13T01:43:37.595Z,0.00
2018-11-13T01:44:37.498Z,0.00
2018-11-13T01:45:37.396Z,0.00
2018-11-13T01:46:37.304Z,0.00
2018-11-13T01:47:37.211Z,0.00
2018-11-13T01:48:37.096Z,0.00
2018-11-13T01:49:37.164Z,0.00
2018-11-13T01:50:36.899Z,0.00
2018-11-13T01:51:36.799Z,0.00
2018-11-13T01:52:36.714Z,0.00
2018-11-13T01:53:36.596Z,0.00
2018-11-13T01:54:36.498Z,0.00
2018-11-13T01:55:36.401Z,0.00
2018-11-13T01:56:36.402Z,0.00
2018-11-13T01:57:36.214Z,0.00
2018-11-13T01:58:36.107Z,0.00
2018-11-13T01:59:36.003Z,0.00
2018-11-13T02:00:35.900Z,0.00
2018-11-13T02:01:35.799Z,0.00
2018-11-13T02:02:35.717Z,0.00
2018-11-13T02:03:35.709Z,0.00
2018-11-13T02:04:35.506Z,0.00
2018-11-13T02:05:35.404Z,0.00
2018-11-13T02:06:35.302Z,0.00
2018-11-13T02:07:35.219Z,0.00
2018-11-13T02:08:35.105Z,0.00
2018-11-13T02:09:35.002Z,0.00
2018-11-13T02:10:34.904Z,0.00
2018-11-13T02:11:34.804Z,0.00
2018-11-13T02:12:34.727Z,0.00
2018-11-13T02:13:34.605Z,0.00
2018-11-13T02:14:34.506Z,0.00
2018-11-13T02:15:34.405Z,0.00
2018-11-13T02:16:34.308Z,0.00
2018-11-13T02:17:34.340Z,0.00
2018-11-13T02:18:34.108Z,0.00
2018-11-13T02:19:34.008Z,0.00
2018-11-13T02:20:33.909Z,0.00
2018-11-13T02:21:33.808Z,0.00
2018-11-13T02:22:33.725Z,0.00
2018-11-13T02:23:33.721Z,0.00
2018-11-13T02:24:33.514Z,0.00
2018-11-13T02:25:33.411Z,0.00
2018-11-13T02:26:33.312Z,0.00
2018-11-13T02:27:33.229Z,0.00
2018-11-13T02:28:33.121Z,0.00
2018-11-13T02:29:33.016Z,0.00
2018-11-13T02:30:32.916Z,0.00
2018-11-13T02:31:32.815Z,0.00
2018-11-13T02:32:32.736Z,0.00
2018-11-13T02:33:32.616Z,0.00
2018-11-13T02:34:32.517Z,0.00
2018-11-13T02:35:32.482Z,0.00
2018-11-13T02:36:32.317Z,0.00
2018-11-13T02:37:32.233Z,0.00
2018-11-13T02:38:32.118Z,0.00
2018-11-13T02:39:32.020Z,0.00
2018-11-13T02:40:31.921Z,0.00
2018-11-13T02:41:31.821Z,0.00
2018-11-13T02:42:31.739Z,0.00
2018-11-13T02:43:31.626Z,0.00
2018-11-13T02:44:31.524Z,0.00
2018-11-13T02:45:31.423Z,0.00
2018-11-13T02:46:31.325Z,0.00
2018-11-13T02:47:31.243Z,0.00
2018-11-13T02:48:31.127Z,0.00
2018-11-13T02:49:31.025Z,0.00
2018-11-13T02:50:30.943Z,0.00
2018-11-13T02:51:30.831Z,0.00
2018-11-13T02:52:30.744Z,0.00
2018-11-13T02:53:30.630Z,0.00
2018-11-13T02:54:30.529Z,0.00
2018-11-13T02:55:30.430Z,0.00
2018-11-13T02:56:30.334Z,0.00
2018-11-13T02:57:30.251Z,0.00
2018-11-13T02:58:30.133Z,0.00
2018-11-13T02:59:30.034Z,0.00
2018-11-13T03:00:29.934Z,0.00
2018-11-13T03:01:29.835Z,0.00
2018-11-13T03:02:29.755Z,0.00
2018-11-13T03:03:29.637Z,0.00
2018-11-13T03:04:29.538Z,0.00
2018-11-13T03:05:29.436Z,0.00
2018-11-13T03:06:29.340Z,0.00
2018-11-13T03:07:29.257Z,0.00
2018-11-13T03:08:29.140Z,0.00
2018-11-13T03:09:29.039Z,0.00
2018-11-13T03:10:28.943Z,0.00
2018-11-13T03:11:28.843Z,0.00
2018-11-13T03:12:28.759Z,0.00
2018-11-13T03:13:28.668Z,0.00
2018-11-13T03:14:28.543Z,0.00
2018-11-13T03:15:28.445Z,0.00
2018-11-13T03:16:28.345Z,0.00
2018-11-13T03:17:28.246Z,0.00
2018-11-13T03:18:28.173Z,0.00
2018-11-13T03:19:28.046Z,0.00
2018-11-13T03:20:27.950Z,0.00
2018-11-13T03:21:27.847Z,0.00
2018-11-13T03:22:27.750Z,0.00
2018-11-13T03:23:27.665Z,0.00
2018-11-13T03:24:27.549Z,0.00
2018-11-13T03:25:27.452Z,0.00
2018-11-13T03:26:27.351Z,0.00
2018-11-13T03:27:27.254Z,0.00
2018-11-13T03:28:27.170Z,0.00
2018-11-13T03:29:27.055Z,0.00
2018-11-13T03:30:26.955Z,0.00
2018-11-13T03:31:26.955Z,0.00
2018-11-13T03:32:26.759Z,0.00
2018-11-13T03:33:26.672Z,0.00
2018-11-13T03:34:26.557Z,0.00
2018-11-13T03:35:26.460Z,0.00
2018-11-13T03:36:26.359Z,0.00
2018-11-13T03:37:26.260Z,0.00
2018-11-13T03:38:26.178Z,0.00
2018-11-13T03:39:26.062Z,0.00
2018-11-13T03:40:25.965Z,0.00
2018-11-13T03:41:25.862Z,0.00
2018-11-13T03:42:25.764Z,0.00
2018-11-13T03:43:25.679Z,0.00
2018-11-13T03:44:25.571Z,0.00
2018-11-13T03:45:25.466Z,0.00
2018-11-13T03:46:25.366Z,0.00
2018-11-13T03:47:25.386Z,0.00
2018-11-13T03:48:25.185Z,0.00
2018-11-13T03:49:25.072Z,0.00
2018-11-13T03:50:24.969Z,0.00
2018-11-13T03:51:24.871Z,0.00
2018-11-13T03:52:24.774Z,0.00
2018-11-13T03:53:24.688Z,0.00
2018-11-13T03:54:24.714Z,0.00
2018-11-13T03:55:24.484Z,0.00
2018-11-13T03:56:24.378Z,0.00
2018-11-13T03:57:24.278Z,0.00
2018-11-13T03:58:24.194Z,0.00
2018-11-13T03:59:24.080Z,0.00
2018-11-13T04:00:23.981Z,0.00
2018-11-13T04:01:23.984Z,0.00
2018-11-13T04:02:23.780Z,0.00
2018-11-13T04:03:23.698Z,0.00
2018-11-13T04:04:23.582Z,0.00
2018-11-13T04:05:23.484Z,0.00
2018-11-13T04:06:23.402Z,0.00
2018-11-13T04:07:23.284Z,0.00
2018-11-13T04:08:23.312Z,0.00
2018-11-13T04:09:23.084Z,0.00
2018-11-13T04:10:22.989Z,0.00
2018-11-13T04:11:22.890Z,0.00
2018-11-13T04:12:22.788Z,0.00
2018-11-13T04:13:22.711Z,0.00
2018-11-13T04:14:22.590Z,0.00
2018-11-13T04:15:22.605Z,0.00
2018-11-13T04:16:22.394Z,0.00
2018-11-13T04:17:22.290Z,0.00
2018-11-13T04:18:22.209Z,0.00
2018-11-13T04:19:22.094Z,0.00
2018-11-13T04:20:21.995Z,0.00
2018-11-13T04:21:21.895Z,0.00
2018-11-13T04:22:21.905Z,0.00
2018-11-13T04:23:21.716Z,0.00
2018-11-13T04:24:21.598Z,0.00
2018-11-13T04:25:21.521Z,0.00
2018-11-13T04:26:21.403Z,0.00
2018-11-13T04:27:21.300Z,0.00
2018-11-13T04:28:21.219Z,0.00
2018-11-13T04:29:21.203Z,0.00
2018-11-13T04:30:21.007Z,0.00
2018-11-13T04:31:20.903Z,0.00
2018-11-13T04:32:20.806Z,0.00
2018-11-13T04:33:20.734Z,0.00
2018-11-13T04:34:20.605Z,0.00
2018-11-13T04:35:20.509Z,0.00
2018-11-13T04:36:20.519Z,0.00
2018-11-13T04:37:20.308Z,0.00
2018-11-13T04:38:20.233Z,0.00
2018-11-13T04:39:20.110Z,0.00
2018-11-13T04:40:20.019Z,0.00
2018-11-13T04:41:19.913Z,0.00
2018-11-13T04:42:19.811Z,0.00
2018-11-13T04:43:19.839Z,0.00
2018-11-13T04:44:19.614Z,0.00
2018-11-13T04:45:19.516Z,0.00
2018-11-13T04:46:19.416Z,0.00
2018-11-13T04:47:19.319Z,0.00
2018-11-13T04:48:19.234Z,0.00
2018-11-13T04:49:19.119Z,0.00
2018-11-13T04:50:19.128Z,0.00
2018-11-13T04:51:18.925Z,0.00
2018-11-13T04:52:18.824Z,0.00
2018-11-13T04:53:18.737Z,0.00
2018-11-13T04:54:18.622Z,0.00
2018-11-13T04:55:18.521Z,0.00
2018-11-13T04:56:18.429Z,0.00
2018-11-13T04:57:18.329Z,0.00
2018-11-13T04:58:18.240Z,0.00
2018-11-13T04:59:18.127Z,0.00
2018-11-13T05:00:18.027Z,0.00
2018-11-13T05:01:17.927Z,0.00
2018-11-13T05:02:17.829Z,0.00
2018-11-13T05:03:17.730Z,0.00
2018-11-13T05:04:17.648Z,0.00
2018-11-13T05:05:17.530Z,0.00
2018-11-13T05:06:17.430Z,0.00
2018-11-13T05:07:17.335Z,0.00
2018-11-13T05:08:17.237Z,0.00
2018-11-13T05:09:17.148Z,0.00
2018-11-13T05:10:17.109Z,0.00
2018-11-13T05:11:16.935Z,0.00
2018-11-13T05:12:16.836Z,0.00
2018-11-13T05:13:16.738Z,0.00
2018-11-13T05:14:16.653Z,0.00
2018-11-13T05:15:16.540Z,0.00
2018-11-13T05:16:16.440Z,0.00
2018-11-13T05:17:16.343Z,0.00
2018-11-13T05:18:16.242Z,0.00
2018-11-13T05:19:16.158Z,0.00
2018-11-13T05:20:16.039Z,0.00
2018-11-13T05:21:15.941Z,0.00
2018-11-13T05:22:15.843Z,0.00
2018-11-13T05:23:15.817Z,0.00
2018-11-13T05:24:15.659Z,0.00
2018-11-13T05:25:15.546Z,0.00
2018-11-13T05:26:15.447Z,0.00
2018-11-13T05:27:15.352Z,0.00
2018-11-13T05:28:15.246Z,0.00
2018-11-13T05:29:15.161Z,0.00
2018-11-13T05:30:15.047Z,0.00
2018-11-13T05:31:14.948Z,0.00
2018-11-13T05:32:14.853Z,0.00
2018-11-13T05:33:14.750Z,0.00
2018-11-13T05:34:14.670Z,0.00
2018-11-13T05:35:14.552Z,0.00
2018-11-13T05:36:14.453Z,0.00
2018-11-13T05:37:14.352Z,0.00
2018-11-13T05:38:14.255Z,0.00
2018-11-13T05:39:14.173Z,0.00
2018-11-13T05:40:14.057Z,0.00
2018-11-13T05:41:13.954Z,0.00
2018-11-13T05:42:13.855Z,0.00
2018-11-13T05:43:13.758Z,0.00
2018-11-13T05:44:13.676Z,0.00
2018-11-13T05:45:13.558Z,0.00
2018-11-13T05:46:13.463Z,0.00
2018-11-13T05:47:13.445Z,0.00
2018-11-13T05:48:13.260Z,4.00
2018-11-13T05:49:13.177Z,0.00
2018-11-13T05:50:13.061Z,0.00
2018-11-13T05:51:12.963Z,0.00
2018-11-13T05:52:12.862Z,4.00
2018-11-13T05:53:12.765Z,4.00
2018-11-13T05:54:12.680Z,0.00
2018-11-13T05:55:12.566Z,4.00
2018-11-13T05:56:12.466Z,4.00
2018-11-13T05:57:12.365Z,4.00
2018-11-13T05:58:12.265Z,8.00
2018-11-13T05:59:12.183Z,8.00
2018-11-13T06:00:12.069Z,4.00
2018-11-13T06:01:11.969Z,8.00
2018-11-13T06:02:11.871Z,8.00
2018-11-13T06:03:11.774Z,8.00
2018-11-13T06:04:11.691Z,12.00
2018-11-13T06:05:11.584Z,16.00
2018-11-13T06:06:11.473Z,20.00
2018-11-13T06:07:11.374Z,20.00
2018-11-13T06:08:11.274Z,24.00
2018-11-13T06:09:11.191Z,32.00
2018-11-13T06:10:11.076Z,32.00
2018-11-13T06:11:10.978Z,36.00
2018-11-13T06:12:10.877Z,40.00
2018-11-13T06:13:10.776Z,40.00
2018-11-13T06:14:10.757Z,44.00
2018-11-13T06:15:10.581Z,44.00
2018-11-13T06:16:10.480Z,52.00
2018-11-13T06:17:10.377Z,56.00
2018-11-13T06:18:10.305Z,56.00
2018-11-13T06:19:10.202Z,60.00
2018-11-13T06:20:10.090Z,72.00
2018-11-13T06:21:09.984Z,84.00
2018-11-13T06:22:09.884Z,92.00
2018-11-13T06:23:09.862Z,100.00
2018-11-13T06:24:09.699Z,120.00
2018-11-13T06:25:09.584Z,140.00
2018-11-13T06:26:09.486Z,160.00
2018-11-13T06:27:09.385Z,164.00
2018-11-13T06:28:09.288Z,160.00
2018-11-13T06:29:09.205Z,180.00
2018-11-13T06:30:09.088Z,200.00
2018-11-13T06:31:08.989Z,212.00
2018-11-13T06:32:08.890Z,228.00
2018-11-13T06:33:08.791Z,256.00
2018-11-13T06:34:08.708Z,264.00
2018-11-13T06:35:08.890Z,280.00
2018-11-13T06:36:08.492Z,288.00
2018-11-13T06:37:08.397Z,296.00
2018-11-13T06:38:08.295Z,296.00
2018-11-13T06:39:08.211Z,320.00
2018-11-13T06:40:08.109Z,376.00
2018-11-13T06:41:07.998Z,440.00
2018-11-13T06:42:07.999Z,516.00
2018-11-13T06:43:07.800Z,588.00
2018-11-13T06:44:07.716Z,636.00
2018-11-13T06:45:07.606Z,684.00
2018-11-13T06:46:07.498Z,728.00
2018-11-13T06:47:07.401Z,788.00
2018-11-13T06:48:07.300Z,856.00
2018-11-13T06:49:07.375Z,936.00
2018-11-13T06:50:07.118Z,968.00
2018-11-13T06:51:07.001Z,928.00
2018-11-13T06:52:06.903Z,864.00
2018-11-13T06:53:06.802Z,816.00
2018-11-13T06:54:06.707Z,792.00
2018-11-13T06:55:06.621Z,820.00
2018-11-13T06:56:06.611Z,872.00
2018-11-13T06:57:06.407Z,908.00
2018-11-13T06:58:06.308Z,900.00
2018-11-13T06:59:06.242Z,844.00
2018-11-13T07:00:06.123Z,776.00
2018-11-13T07:01:06.009Z,812.00
2018-11-13T07:02:05.912Z,908.00
2018-11-13T07:03:05.916Z,932.00
2018-11-13T07:04:05.717Z,880.00
2018-11-13T07:05:05.710Z,840.00
2018-11-13T07:06:05.513Z,860.00
2018-11-13T07:07:05.412Z,892.00
2018-11-13T07:08:05.315Z,924.00
2018-11-13T07:09:05.216Z,952.00
2018-11-13T07:10:05.243Z,980.00
2018-11-13T07:11:05.025Z,924.00
2018-11-13T07:12:04.917Z,816.00
2018-11-13T07:13:04.818Z,820.00
2018-11-13T07:14:04.720Z,832.00
2018-11-13T07:15:04.637Z,852.00
2018-11-13T07:16:04.522Z,772.00
2018-11-13T07:17:04.532Z,728.00
2018-11-13T07:18:04.327Z,772.00
2018-11-13T07:19:04.226Z,868.00
2018-11-13T07:20:04.142Z,804.00
2018-11-13T07:21:04.025Z,800.00
2018-11-13T07:22:03.927Z,764.00
2018-11-13T07:23:03.831Z,828.00
2018-11-13T07:24:03.833Z,936.00
2018-11-13T07:25:03.647Z,1040.00
2018-11-13T07:26:03.535Z,1148.00
2018-11-13T07:27:03.519Z,1060.00
2018-11-13T07:28:03.349Z,908.00
2018-11-13T07:29:03.234Z,788.00
2018-11-13T07:30:03.157Z,692.00
2018-11-13T07:31:03.142Z,656.00
2018-11-13T07:32:02.950Z,640.00
2018-11-13T07:33:02.845Z,612.00
2018-11-13T07:34:02.744Z,576.00
2018-11-13T07:35:02.661Z,568.00
2018-11-13T07:36:02.545Z,604.00
2018-11-13T07:37:02.446Z,684.00
2018-11-13T07:38:02.468Z,704.00
2018-11-13T07:39:02.254Z,688.00
2018-11-13T07:40:02.180Z,728.00
2018-11-13T07:41:02.089Z,728.00
2018-11-13T07:42:01.955Z,736.00
2018-11-13T07:43:01.858Z,728.00
2018-11-13T07:44:01.758Z,792.00
2018-11-13T07:45:01.680Z,1056.00
2018-11-13T07:46:01.563Z,1356.00
2018-11-13T07:47:01.496Z,1472.00
2018-11-13T07:48:01.423Z,1284.00
2018-11-13T07:49:01.266Z,1104.00
2018-11-13T07:50:01.189Z,1248.00
2018-11-13T07:51:01.087Z,1260.00
2018-11-13T07:52:01.077Z,1156.00
2018-11-13T07:53:00.872Z,1100.00
2018-11-13T07:54:00.901Z,1144.00
2018-11-13T07:55:00.714Z,1256.00
2018-11-13T07:56:00.580Z,1440.00
2018-11-13T07:57:01.176Z,1584.00
2018-11-13T07:58:00.386Z,1692.00
2018-11-13T07:59:00.282Z,1724.00
2018-11-13T08:00:00.199Z,1584.00
2018-11-13T08:01:00.083Z,1560.00
2018-11-13T08:01:59.987Z,1632.00
2018-11-13T08:02:59.885Z,1856.00
2018-11-13T08:03:59.789Z,2136.00
2018-11-13T08:04:59.704Z,2368.00
2018-11-13T08:05:59.599Z,2044.00
2018-11-13T08:06:59.492Z,1840.00
2018-11-13T08:07:59.399Z,1676.00
2018-11-13T08:08:59.294Z,1812.00
2018-11-13T08:09:59.211Z,1884.00
2018-11-13T08:10:59.097Z,1964.00
2018-11-13T08:11:58.999Z,2076.00
2018-11-13T08:12:59.043Z,2260.00
2018-11-13T08:13:58.802Z,2220.00
2018-11-13T08:14:58.719Z,2192.00
2018-11-13T08:15:58.608Z,2468.00
2018-11-13T08:16:58.508Z,2584.00
2018-11-13T08:17:58.412Z,2768.00
2018-11-13T08:18:58.369Z,2068.00
2018-11-13T08:19:58.229Z,1992.00
2018-11-13T08:20:58.126Z,1836.00
2018-11-13T08:21:58.044Z,1672.00
2018-11-13T08:22:57.921Z,1684.00
2018-11-13T08:23:57.818Z,1792.00
2018-11-13T08:24:57.721Z,1936.00
2018-11-13T08:25:57.639Z,2140.00
2018-11-13T08:26:57.572Z,1964.00
2018-11-13T08:27:57.431Z,1804.00
2018-11-13T08:28:57.432Z,1912.00
2018-11-13T08:29:57.228Z,1872.00
2018-11-13T08:30:57.147Z,1744.00
2018-11-13T08:31:57.038Z,1440.00
2018-11-13T08:32:56.962Z,1368.00
2018-11-13T08:33:56.835Z,1584.00
2018-11-13T08:34:56.876Z,1556.00
2018-11-13T08:35:56.658Z,1288.00
2018-11-13T08:36:56.543Z,1140.00
2018-11-13T08:37:56.444Z,1160.00
2018-11-13T08:38:56.347Z,1272.00
2018-11-13T08:39:56.249Z,1584.00
2018-11-13T08:40:56.166Z,1916.00
2018-11-13T08:41:56.049Z,2508.00
2018-11-13T08:42:55.953Z,3064.00
2018-11-13T08:43:55.907Z,3196.00
2018-11-13T08:44:55.761Z,2900.00
2018-11-13T08:45:55.679Z,1924.00
2018-11-13T08:46:55.559Z,1676.00
2018-11-13T08:47:55.469Z,1528.00
2018-11-13T08:48:55.363Z,1508.00
2018-11-13T08:49:55.266Z,1880.00
2018-11-13T08:50:55.231Z,2252.00
2018-11-13T08:51:55.085Z,2608.00
2018-11-13T08:52:54.969Z,2520.00
2018-11-13T08:53:54.873Z,2276.00
2018-11-13T08:54:54.773Z,2236.00
2018-11-13T08:55:54.677Z,2188.00
2018-11-13T08:56:54.598Z,2196.00
2018-11-13T08:57:54.482Z,2464.00
2018-11-13T08:58:54.512Z,2252.00
2018-11-13T08:59:54.284Z,2128.00
2018-11-13T09:00:54.184Z,2168.00
2018-11-13T09:01:54.103Z,2208.00
2018-11-13T09:02:53.997Z,2028.00
2018-11-13T09:03:53.895Z,2020.00
2018-11-13T09:04:53.795Z,2040.00
2018-11-13T09:05:53.693Z,1948.00
2018-11-13T09:06:53.612Z,1912.00
2018-11-13T09:07:53.499Z,1740.00
2018-11-13T09:08:53.398Z,1752.00
2018-11-13T09:09:53.300Z,1840.00
2018-11-13T09:10:53.202Z,1704.00
2018-11-13T09:11:53.203Z,1936.00
2018-11-13T09:12:53.005Z,1840.00
2018-11-13T09:13:52.906Z,2064.00
2018-11-13T09:14:52.915Z,1772.00
2018-11-13T09:15:52.711Z,1768.00
2018-11-13T09:16:52.628Z,1756.00
2018-11-13T09:17:52.524Z,1928.00
2018-11-13T09:18:52.490Z,1936.00
2018-11-13T09:19:52.320Z,1532.00
2018-11-13T09:20:52.218Z,1368.00
2018-11-13T09:21:52.296Z,1200.00
2018-11-13T09:22:52.091Z,1212.00
2018-11-13T09:23:51.930Z,1248.00
2018-11-13T09:24:51.826Z,1376.00
2018-11-13T09:25:51.727Z,1232.00
2018-11-13T09:26:51.630Z,1196.00
2018-11-13T09:27:51.546Z,1320.00
2018-11-13T09:28:51.536Z,1840.00
2018-11-13T09:29:51.359Z,1800.00
2018-11-13T09:30:51.684Z,1480.00
2018-11-13T09:31:51.172Z,1640.00
2018-11-13T09:32:51.242Z,2288.00
2018-11-13T09:33:50.939Z,2316.00
2018-11-13T09:34:50.842Z,2152.00
2018-11-13T09:35:50.853Z,1992.00
2018-11-13T09:36:50.646Z,2240.00
2018-11-13T09:37:50.565Z,2412.00
2018-11-13T09:38:50.448Z,2524.00
2018-11-13T09:39:50.351Z,2520.00
2018-11-13T09:40:50.254Z,1904.00
2018-11-13T09:41:50.154Z,1980.00
2018-11-13T09:42:50.202Z,1980.00
2018-11-13T09:43:49.961Z,2068.00
2018-11-13T09:44:49.897Z,2272.00
2018-11-13T09:45:49.770Z,2480.00
2018-11-13T09:46:49.670Z,2612.00
2018-11-13T09:47:49.627Z,2168.00
2018-11-13T09:48:49.468Z,2204.00
2018-11-13T09:49:49.479Z,1780.00
2018-11-13T09:50:49.353Z,1684.00
2018-11-13T09:51:49.175Z,1520.00
2018-11-13T09:52:49.094Z,1388.00
2018-11-13T09:53:49.037Z,1372.00
2018-11-13T09:54:48.883Z,1564.00
2018-11-13T09:55:48.787Z,1840.00
2018-11-13T09:56:48.797Z,1972.00
2018-11-13T09:57:48.604Z,1984.00
2018-11-13T09:58:48.543Z,2020.00
2018-11-13T09:59:48.443Z,2116.00
2018-11-13T10:00:48.518Z,2360.00
2018-11-13T10:01:48.923Z,2332.00
2018-11-13T10:02:48.769Z,2320.00
2018-11-13T10:03:48.941Z,2584.00
2018-11-13T10:04:48.686Z,2532.00
2018-11-13T10:05:47.838Z,2364.00
2018-11-13T10:06:47.711Z,2424.00
2018-11-13T10:07:47.624Z,2940.00
2018-11-13T10:08:47.512Z,3188.00
2018-11-13T10:09:47.412Z,2936.00
2018-11-13T10:10:47.405Z,2712.00
2018-11-13T10:11:47.219Z,2648.00
2018-11-13T10:12:47.133Z,3028.00
2018-11-13T10:13:47.021Z,3656.00
2018-11-13T10:14:46.921Z,4176.00
2018-11-13T10:15:46.827Z,4000.00
2018-11-13T10:16:46.728Z,4320.00
2018-11-13T10:17:46.769Z,3824.00
2018-11-13T10:18:46.530Z,4108.00
2018-11-13T10:19:46.432Z,4352.00
2018-11-13T10:20:46.333Z,4292.00
2018-11-13T10:21:46.238Z,4372.00
2018-11-13T10:22:46.156Z,3904.00
2018-11-13T10:23:46.141Z,3268.00
2018-11-13T10:24:45.939Z,3020.00
2018-11-13T10:25:45.843Z,2800.00
2018-11-13T10:26:45.746Z,2420.00
2018-11-13T10:27:45.753Z,2632.00
2018-11-13T10:28:45.564Z,2280.00
2018-11-13T10:29:45.474Z,2548.00
2018-11-13T10:30:45.368Z,3296.00
2018-11-13T10:31:45.255Z,3360.00
2018-11-13T10:32:45.161Z,2852.00
2018-11-13T10:33:45.074Z,2716.00
2018-11-13T10:34:44.960Z,2560.00
2018-11-13T10:35:44.861Z,2464.00
2018-11-13T10:36:44.765Z,3144.00
2018-11-13T10:37:44.665Z,3816.00
2018-11-13T10:38:44.582Z,4132.00
2018-11-13T10:39:44.471Z,4444.00
2018-11-13T10:40:44.508Z,4468.00
2018-11-13T10:41:44.268Z,4284.00
2018-11-13T10:42:44.171Z,3816.00
2018-11-13T10:43:44.088Z,3404.00
2018-11-13T10:44:43.972Z,3124.00
2018-11-13T10:45:43.877Z,2836.00
2018-11-13T10:46:43.776Z,2548.00
2018-11-13T10:47:43.678Z,2752.00
2018-11-13T10:48:43.605Z,3152.00
2018-11-13T10:49:43.482Z,3128.00
2018-11-13T10:50:43.382Z,3164.00
2018-11-13T10:51:43.285Z,3512.00
2018-11-13T10:52:43.188Z,3088.00
2018-11-13T10:53:43.103Z,3024.00
2018-11-13T10:54:42.988Z,2312.00
2018-11-13T10:55:42.891Z,2156.00
2018-11-13T10:56:42.791Z,2180.00
2018-11-13T10:57:42.694Z,2040.00
2018-11-13T10:58:42.614Z,2084.00
2018-11-13T10:59:42.496Z,2504.00
2018-11-13T11:00:42.397Z,2464.00
2018-11-13T11:01:42.298Z,3016.00
2018-11-13T11:02:42.259Z,3072.00
2018-11-13T11:03:42.116Z,3780.00
2018-11-13T11:04:42.002Z,3928.00
2018-11-13T11:05:41.904Z,3504.00
2018-11-13T11:06:41.806Z,4120.00
2018-11-13T11:07:41.713Z,3544.00
2018-11-13T11:08:41.628Z,3576.00
2018-11-13T11:09:41.512Z,3944.00
2018-11-13T11:10:41.410Z,4740.00
2018-11-13T11:11:41.314Z,4112.00
2018-11-13T11:12:41.256Z,4564.00
2018-11-13T11:13:41.186Z,4976.00
2018-11-13T11:14:41.038Z,4384.00
2018-11-13T11:15:40.952Z,5004.00
2018-11-13T11:16:40.820Z,4500.00
2018-11-13T11:17:40.721Z,4828.00
2018-11-13T11:18:40.690Z,4544.00
2018-11-13T11:19:40.541Z,5116.00
2018-11-13T11:20:40.426Z,5596.00
2018-11-13T11:21:40.326Z,5496.00
2018-11-13T11:22:40.271Z,5120.00
2018-11-13T11:23:40.259Z,5404.00
2018-11-13T11:24:40.048Z,5148.00
2018-11-13T11:25:39.935Z,5224.00
2018-11-13T11:26:39.835Z,6236.00
2018-11-13T11:27:39.738Z,6932.00
2018-11-13T11:28:39.640Z,6528.00
2018-11-13T11:29:39.557Z,6748.00
2018-11-13T11:30:39.443Z,6632.00
2018-11-13T11:31:39.344Z,6484.00
2018-11-13T11:32:39.247Z,6952.00
2018-11-13T11:33:39.152Z,6904.00
2018-11-13T11:34:39.066Z,7236.00
2018-11-13T11:35:38.952Z,6744.00
2018-11-13T11:36:38.855Z,6624.00
2018-11-13T11:37:38.755Z,4780.00
2018-11-13T11:38:38.686Z,4576.00
2018-11-13T11:39:38.580Z,4676.00
2018-11-13T11:40:38.461Z,3396.00
2018-11-13T11:41:38.365Z,2716.00
2018-11-13T11:42:38.267Z,3016.00
2018-11-13T11:43:38.170Z,3180.00
2018-11-13T11:44:38.119Z,2808.00
2018-11-13T11:45:37.973Z,2200.00
2018-11-13T11:46:37.877Z,1620.00
2018-11-13T11:47:37.778Z,2036.00
2018-11-13T11:48:37.794Z,2360.00
2018-11-13T11:49:37.598Z,1876.00
2018-11-13T11:50:37.487Z,2124.00
2018-11-13T11:51:37.425Z,1896.00
2018-11-13T11:52:37.292Z,1688.00
2018-11-13T11:53:37.224Z,1836.00
2018-11-13T11:54:37.117Z,1576.00
2018-11-13T11:55:37.110Z,1476.00
2018-11-13T11:56:36.900Z,1560.00
2018-11-13T11:57:36.804Z,1384.00
2018-11-13T11:58:36.707Z,1388.00
2018-11-13T11:59:36.627Z,1396.00
2018-11-13T12:00:36.568Z,1536.00
2018-11-13T12:01:36.417Z,2092.00
2018-11-13T12:02:36.423Z,2660.00
2018-11-13T12:03:36.221Z,2148.00
2018-11-13T12:04:36.152Z,1936.00
2018-11-13T12:05:36.026Z,1724.00
2018-11-13T12:06:35.929Z,2532.00
2018-11-13T12:07:35.845Z,2736.00
2018-11-13T12:08:35.734Z,2592.00
2018-11-13T12:09:35.750Z,2992.00
2018-11-13T12:10:35.559Z,4064.00
2018-11-13T12:11:35.448Z,4896.00
2018-11-13T12:12:35.348Z,5288.00
2018-11-13T12:13:35.252Z,3936.00
2018-11-13T12:14:35.156Z,3364.00
2018-11-13T12:15:35.074Z,4032.00
2018-11-13T12:16:35.134Z,4580.00
2018-11-13T12:17:34.864Z,4380.00
2018-11-13T12:18:34.770Z,4048.00
2018-11-13T12:19:34.713Z,3272.00
2018-11-13T12:20:34.588Z,4204.00
2018-11-13T12:21:34.476Z,4864.00
2018-11-13T12:22:34.380Z,7036.00
2018-11-13T12:23:34.396Z,7124.00
2018-11-13T12:24:34.186Z,5472.00
2018-11-13T12:25:34.161Z,4096.00
2018-11-13T12:26:33.993Z,3788.00
2018-11-13T12:27:33.907Z,2816.00
2018-11-13T12:28:33.834Z,2536.00
2018-11-13T12:29:33.706Z,2724.00
2018-11-13T12:30:33.736Z,3324.00
2018-11-13T12:31:33.511Z,3524.00
2018-11-13T12:32:33.412Z,4964.00
2018-11-13T12:33:33.319Z,3852.00
2018-11-13T12:34:33.276Z,2336.00
2018-11-13T12:35:33.144Z,2344.00
2018-11-13T12:36:33.030Z,1476.00
2018-11-13T12:37:33.064Z,1132.00
2018-11-13T12:38:32.837Z,1216.00
2018-11-13T12:39:32.738Z,1608.00
2018-11-13T12:40:32.663Z,1484.00
2018-11-13T12:41:32.547Z,1732.00